createdAt,value
2016-12-20T00:00:05.031Z,0
2016-12-20T00:05:04.322Z,0
2016-12-20T00:10:04.895Z,0
2016-12-20T00:15:04.543Z,0
2016-12-20T00:20:04.700Z,0
2016-12-20T00:25:04.291Z,0
2016-12-20T00:30:04.543Z,0
2016-12-20T00:35:04.378Z,0
2016-12-20T00:40:05.073Z,0
2016-12-20T00:45:04.282Z,0
2016-12-20T00:50:04.732Z,0
2016-12-20T00:55:04.931Z,0
2016-12-20T01:00:05.026Z,0
2016-12-20T01:05:04.870Z,0
2016-12-20T01:10:04.743Z,0
2016-12-20T01:15:05.095Z,0
2016-12-20T01:20:04.532Z,0
2016-12-20T01:25:05.249Z,0
2016-12-20T01:30:04.593Z,0
2016-12-20T01:35:04.651Z,0
2016-12-20T01:40:04.265Z,0
2016-12-20T01:45:04.676Z,0
2016-12-20T01:50:04.988Z,0
2016-12-20T01:55:05.146Z,0
2016-12-20T02:00:04.586Z,0
2016-12-20T02:05:04.858Z,0
2016-12-20T02:10:04.727Z,0
2016-12-20T02:15:05.026Z,0
2016-12-20T02:20:04.431Z,0
2016-12-20T02:25:04.599Z,0
2016-12-20T02:30:04.321Z,0
2016-12-20T02:35:04.203Z,0
2016-12-20T02:40:04.634Z,0
2016-12-20T02:45:04.860Z,0
2016-12-20T02:50:04.969Z,0
2016-12-20T02:55:04.826Z,0
2016-12-20T03:00:04.980Z,0
2016-12-20T03:05:08.548Z,0
2016-12-20T03:10:04.941Z,0
2016-12-20T03:15:04.468Z,0
2016-12-20T03:20:04.792Z,0
2016-12-20T03:25:04.278Z,0
2016-12-20T03:30:04.353Z,0
2016-12-20T03:35:04.814Z,0
2016-12-20T03:40:04.922Z,0
2016-12-20T03:45:05.023Z,0
2016-12-20T03:50:04.970Z,0
2016-12-20T03:55:05.027Z,0
2016-12-20T04:00:04.951Z,0
2016-12-20T04:05:05.959Z,0
2016-12-20T04:10:05.102Z,0
2016-12-20T04:15:05.017Z,0
2016-12-20T04:20:04.862Z,0
2016-12-20T04:25:05.103Z,0
2016-12-20T04:30:04.587Z,0
2016-12-20T04:35:04.581Z,0
2016-12-20T04:40:04.838Z,0
2016-12-20T04:45:04.976Z,0
2016-12-20T04:50:04.640Z,0
2016-12-20T04:55:04.877Z,0
2016-12-20T05:00:04.343Z,0
2016-12-20T05:05:04.510Z,0
2016-12-20T05:10:04.432Z,0
2016-12-20T05:15:04.603Z,0
2016-12-20T05:20:05.163Z,0
2016-12-20T05:25:04.210Z,0
2016-12-20T05:30:04.943Z,0
2016-12-20T05:35:04.573Z,0
2016-12-20T05:40:07.322Z,0
2016-12-20T05:45:05.003Z,0
2016-12-20T05:50:04.359Z,0
2016-12-20T05:55:04.797Z,0
2016-12-20T06:00:05.011Z,0
2016-12-20T06:05:04.802Z,0
2016-12-20T06:10:04.339Z,0
2016-12-20T06:15:04.458Z,0
2016-12-20T06:20:04.254Z,0
2016-12-20T06:25:04.354Z,0
2016-12-20T06:30:05.112Z,0
2016-12-20T06:35:05.131Z,0
2016-12-20T06:40:04.267Z,0
2016-12-20T06:45:04.393Z,0
2016-12-20T06:50:04.257Z,0
2016-12-20T06:55:04.313Z,0
2016-12-20T07:00:04.321Z,0
2016-12-20T07:05:05.101Z,0
2016-12-20T07:10:05.036Z,0
2016-12-20T07:15:04.781Z,0
2016-12-20T07:20:04.748Z,0
2016-12-20T07:25:05.135Z,0
2016-12-20T07:30:05.851Z,0
2016-12-20T07:35:04.072Z,0
2016-12-20T07:40:05.089Z,0
2016-12-20T07:45:04.785Z,0
2016-12-20T07:50:04.524Z,0
2016-12-20T07:55:04.208Z,0
2016-12-20T08:00:05.149Z,0
2016-12-20T08:05:04.252Z,0
2016-12-20T08:10:04.382Z,0
2016-12-20T08:15:04.807Z,0
2016-12-20T08:20:04.312Z,0
2016-12-20T08:25:04.059Z,0
2016-12-20T08:30:04.510Z,0
2016-12-20T08:35:04.601Z,0
2016-12-20T08:40:04.961Z,0
2016-12-20T08:45:05.168Z,0
2016-12-20T08:50:04.521Z,0
2016-12-20T08:55:04.249Z,0
2016-12-20T09:00:04.818Z,0
2016-12-20T09:05:05.000Z,0
2016-12-20T09:10:04.952Z,0
2016-12-20T09:15:04.812Z,0
2016-12-20T09:20:04.728Z,0
2016-12-20T09:25:04.424Z,0
2016-12-20T09:30:04.472Z,0
2016-12-20T09:35:04.655Z,0
2016-12-20T09:40:04.928Z,0
2016-12-20T09:45:05.088Z,0
2016-12-20T09:50:04.554Z,0
2016-12-20T09:55:04.311Z,0
2016-12-20T10:00:04.846Z,0
2016-12-20T10:05:04.419Z,0
2016-12-20T10:10:04.393Z,0
2016-12-20T10:15:04.803Z,0
2016-12-20T10:20:05.218Z,0
2016-12-20T10:25:04.920Z,0
2016-12-20T10:30:05.033Z,0
2016-12-20T10:35:04.468Z,0
2016-12-20T10:40:04.249Z,0
2016-12-20T10:45:04.798Z,0
2016-12-20T10:50:04.611Z,0
2016-12-20T10:55:04.950Z,0
2016-12-20T11:00:04.371Z,0
2016-12-20T11:05:05.135Z,0
2016-12-20T11:10:04.686Z,0
2016-12-20T11:15:04.628Z,0
2016-12-20T11:20:04.354Z,0
2016-12-20T11:25:04.545Z,0
2016-12-20T11:30:04.813Z,0
2016-12-20T11:35:04.693Z,0
2016-12-20T11:40:04.591Z,0
2016-12-20T11:45:04.622Z,0
2016-12-20T11:50:04.424Z,0
2016-12-20T11:55:05.026Z,0
2016-12-20T12:00:04.696Z,0
2016-12-20T12:05:04.384Z,0
2016-12-20T12:10:04.463Z,0
2016-12-20T12:15:04.820Z,0
2016-12-20T12:20:05.221Z,0
2016-12-20T12:25:04.312Z,0
2016-12-20T12:30:05.314Z,0
2016-12-20T12:35:05.133Z,0
2016-12-20T12:40:04.222Z,0
2016-12-20T12:45:05.166Z,0
2016-12-20T12:50:04.764Z,0
2016-12-20T12:55:04.444Z,0
2016-12-20T13:00:04.248Z,1
2016-12-20T13:05:04.426Z,0
2016-12-20T13:10:04.849Z,0
2016-12-20T13:15:04.636Z,0
2016-12-20T13:20:04.525Z,0
2016-12-20T13:25:04.425Z,0
2016-12-20T13:30:04.569Z,0
2016-12-20T13:35:04.438Z,0
2016-12-20T13:40:04.611Z,0
2016-12-20T13:45:05.151Z,0
2016-12-20T13:50:04.542Z,0
2016-12-20T13:55:04.259Z,0
2016-12-20T14:00:04.714Z,0
2016-12-20T14:05:04.829Z,0
2016-12-20T14:10:04.287Z,0
2016-12-20T14:15:04.465Z,0
2016-12-20T14:20:04.967Z,0
2016-12-20T14:25:04.531Z,0
2016-12-20T14:30:05.089Z,0
2016-12-20T14:35:04.865Z,0
2016-12-20T14:40:04.447Z,0
2016-12-20T14:45:04.143Z,0
2016-12-20T14:50:04.968Z,0
2016-12-20T14:55:04.968Z,0
2016-12-20T15:00:05.042Z,0
2016-12-20T15:05:04.322Z,0
2016-12-20T15:10:04.626Z,0
2016-12-20T15:15:04.418Z,0
2016-12-20T15:20:04.707Z,0
2016-12-20T15:25:04.782Z,0
2016-12-20T15:30:05.019Z,0
2016-12-20T15:35:04.266Z,0
2016-12-20T15:40:05.066Z,0
2016-12-20T15:45:04.207Z,0
2016-12-20T15:50:04.710Z,0
2016-12-20T15:55:04.642Z,0
2016-12-20T16:00:05.007Z,0
2016-12-20T16:05:04.228Z,0
2016-12-20T16:10:04.432Z,0
2016-12-20T16:15:04.593Z,0
2016-12-20T16:20:04.505Z,0
2016-12-20T16:25:05.186Z,0
2016-12-20T16:30:04.616Z,0
2016-12-20T16:35:04.650Z,0
2016-12-20T16:40:05.005Z,0
2016-12-20T16:45:04.603Z,0
2016-12-20T16:50:04.425Z,0
2016-12-20T16:55:05.026Z,0
2016-12-20T17:00:05.056Z,0
2016-12-20T17:05:04.943Z,0
2016-12-20T17:10:04.945Z,0
2016-12-20T17:15:04.882Z,0
2016-12-20T17:20:04.907Z,0
2016-12-20T17:25:04.977Z,0
2016-12-20T17:30:04.580Z,0
2016-12-20T17:35:04.921Z,0
2016-12-20T17:40:04.860Z,0
2016-12-20T17:45:04.499Z,0
2016-12-20T17:50:04.676Z,0
2016-12-20T17:55:04.786Z,0
2016-12-20T18:00:04.475Z,0
2016-12-20T18:05:04.970Z,0
2016-12-20T18:10:04.997Z,0
2016-12-20T18:15:04.263Z,0
2016-12-20T18:20:04.705Z,0
2016-12-20T18:25:04.663Z,0
2016-12-20T18:30:05.089Z,0
2016-12-20T18:35:04.265Z,0
2016-12-20T18:40:04.452Z,0
2016-12-20T18:45:04.867Z,0
2016-12-20T18:50:04.362Z,0
2016-12-20T18:55:04.553Z,0
2016-12-20T19:00:04.894Z,0
2016-12-20T19:05:04.343Z,0
2016-12-20T19:10:04.935Z,0
2016-12-20T19:15:04.367Z,0
2016-12-20T19:20:04.811Z,0
2016-12-20T19:25:05.142Z,0
2016-12-20T19:30:04.549Z,0
2016-12-20T19:35:04.281Z,0
2016-12-20T19:40:04.389Z,0
2016-12-20T19:45:04.879Z,0
2016-12-20T19:50:04.474Z,0
2016-12-20T19:55:05.008Z,0
2016-12-20T20:00:04.978Z,0
2016-12-20T20:05:04.755Z,0
2016-12-20T20:10:04.829Z,0
2016-12-20T20:15:04.920Z,0
2016-12-20T20:20:04.144Z,0
2016-12-20T20:25:04.335Z,0
2016-12-20T20:30:04.623Z,0
2016-12-20T20:35:04.350Z,0
2016-12-20T20:40:04.678Z,0
2016-12-20T20:45:04.626Z,0
2016-12-20T20:50:04.571Z,0
2016-12-20T20:55:04.264Z,0
2016-12-20T21:00:04.770Z,0
2016-12-20T21:05:04.650Z,0
2016-12-20T21:10:04.701Z,0
2016-12-20T21:15:04.697Z,0
2016-12-20T21:20:05.053Z,0
2016-12-20T21:25:04.209Z,0
2016-12-20T21:30:04.890Z,0
2016-12-20T21:35:04.722Z,0
2016-12-20T21:40:04.226Z,0
2016-12-20T21:45:04.838Z,0
2016-12-20T21:50:05.261Z,0
2016-12-20T21:55:04.240Z,0
2016-12-20T22:00:05.013Z,2
2016-12-20T22:05:04.840Z,0
2016-12-20T22:10:04.460Z,0
2016-12-20T22:15:04.509Z,0
2016-12-20T22:20:04.398Z,0
2016-12-20T22:25:04.142Z,0
2016-12-20T22:30:05.002Z,0
2016-12-20T22:35:05.203Z,1
2016-12-20T22:40:04.515Z,1
2016-12-20T22:45:04.469Z,3
2016-12-20T22:50:05.033Z,3
2016-12-20T22:55:04.937Z,3
2016-12-20T23:00:04.272Z,5
2016-12-20T23:05:04.269Z,5
2016-12-20T23:10:05.001Z,6
2016-12-20T23:15:05.223Z,5
2016-12-20T23:20:04.670Z,5
2016-12-20T23:25:04.816Z,4
2016-12-20T23:30:04.945Z,8
2016-12-20T23:35:05.083Z,5
2016-12-20T23:40:05.229Z,5
2016-12-20T23:45:04.883Z,6
2016-12-20T23:50:04.355Z,6
2016-12-20T23:55:04.717Z,7
